Hovedside
METAR-TAF:

METAR-TAF

Lufthavner :

Berbérati, Den sentralafrikanske republikk

breddegrad: 04-15N, lengdegrad: 015-48E, høyde over havet: 582 m

Gjeldene værobservasjon

Denne rapporten ble laget for 7 timer og 35 minutter siden, klokken 10:00 UTC
Vind 6 kt fra Vest
Temperatur 28°C
Luftfuktighet 55%
Trykk 1015 hPa
Sikt 10 km eller mer
ingen skyer under 1500 m og ingen bygeskyer

METAR: FEFT 311000Z 28006KT CAVOK 28/18 Q1015

Tid: 18:35 (17:35 UTC)


TAF: fraværende

Værobservasjoner og værvarsel for over 4000 flyplasser (METAR- og TAF-rapporter).

Tilgjengelige stasjoner er representert av de røde og gule prikkene på kartet.

Hold musepekeren over prikken for å se navnet på stasjonen.

Klikk så for å se værobservasjoner og -varsler.

For å forandre kartet kan du klikke på den grønne knappen med svart kryss for å zoome inn, på den grønne knappen med strek for å zoome ut, eller på de grønne pilene for å se tilstøtende kart.


METAR-TAF: